Time;durP1;ratioP1;P1;durP2;ratioP2;P2;SDS_P1;SDS_P2;PMS_P1;PMS_P2;Temp;Humidity;BMP_temperature;BMP_pressure;BME280_temperature;BME280_humidity;BME280_pressure;Samples;Min_cycle;Max_cycle;Signal;HPM_P1;HPM_P2
2021/04/17 00:01:57;;;;;;;6.17;3.43;;;;;;;5.82;57.88;102809.38;5116239;28;20470;-43
2021/04/17 00:04:23;;;;;;;6.13;3.78;;;;;;;5.65;58.38;102808.31;5115745;28;20096;-44
2021/04/17 00:06:50;;;;;;;6.28;3.30;;;;;;;5.75;58.02;102802.91;5115623;28;20028;-43
2021/04/17 00:09:20;;;;;;;5.93;3.00;;;;;;;5.66;58.43;102804.66;5114862;28;20468;-43
2021/04/17 00:11:46;;;;;;;5.82;3.38;;;;;;;5.75;57.56;102796.69;5115494;28;20046;-43
2021/04/17 00:14:17;;;;;;;5.70;3.22;;;;;;;5.65;58.33;102792.22;5115546;28;20037;-43
2021/04/17 00:16:43;;;;;;;5.30;3.40;;;;;;;5.62;58.63;102797.06;5115572;28;20030;-43
2021/04/17 00:19:08;;;;;;;4.88;3.22;;;;;;;5.63;58.58;102793.38;5115670;28;20471;-43
2021/04/17 00:21:34;;;;;;;5.47;3.77;;;;;;;5.49;58.78;102802.78;5115934;28;20374;-43
2021/04/17 00:24:00;;;;;;;7.17;3.33;;;;;;;5.47;58.81;102798.56;5115335;28;20038;-44
2021/04/17 00:26:26;;;;;;;6.30;3.35;;;;;;;5.38;59.21;102797.63;5115438;28;20592;-44
2021/04/17 00:28:52;;;;;;;5.13;3.00;;;;;;;5.42;59.49;102791.81;5115135;28;20129;-43
2021/04/17 00:31:17;;;;;;;;;;;;;;;5.53;57.72;102795.28;5115708;28;20039;-50
2021/04/17 00:33:43;;;;;;;5.68;3.00;;;;;;;5.42;59.31;102783.75;5115228;28;19912;-43
2021/04/17 00:36:08;;;;;;;7.20;3.57;;;;;;;5.41;59.77;102783.88;5115520;28;20030;-42
2021/04/17 00:38:34;;;;;;;6.30;3.67;;;;;;;5.33;59.29;102781.13;5114914;28;20055;-43
2021/04/17 00:40:59;;;;;;;7.20;4.10;;;;;;;5.25;59.88;102786.38;5115611;28;20039;-43
2021/04/17 00:43:26;;;;;;;7.43;4.07;;;;;;;5.27;59.87;102782.56;5115278;28;20065;-43
2021/04/17 00:45:52;;;;;;;5.85;3.65;;;;;;;5.15;60.46;102789.09;5115334;28;20250;-43
2021/04/17 00:48:17;;;;;;;8.35;3.70;;;;;;;5.18;59.70;102788.81;5114597;28;20027;-42
2021/04/17 00:50:43;;;;;;;6.17;3.63;;;;;;;5.16;60.30;102793.47;5113944;28;20497;-43
2021/04/17 00:53:09;;;;;;;6.43;3.97;;;;;;;5.12;60.73;102786.72;5114918;28;20451;-43
2021/04/17 00:55:35;;;;;;;7.40;3.45;;;;;;;5.03;60.49;102795.66;5114849;28;20031;-42
2021/04/17 00:58:04;;;;;;;7.30;4.00;;;;;;;5.04;60.82;102786.63;5115044;28;20020;-43
2021/04/17 01:00:33;;;;;;;6.93;4.70;;;;;;;5.08;61.40;102782.66;5115013;28;20027;-42
2021/04/17 01:03:07;;;;;;;5.65;3.47;;;;;;;4.96;61.11;102781.97;5114667;28;20034;-42
2021/04/17 01:05:33;;;;;;;8.68;3.67;;;;;;;5.02;61.23;102783.22;5115245;28;20028;-43
2021/04/17 05:47:04;;;;;;;9.98;4.55;;;;;;;4.04;71.08;102787.91;5113353;28;20127;-43
2021/04/17 05:49:29;;;;;;;6.73;3.87;;;;;;;4.06;71.92;102790.47;5113857;28;20479;-44
2021/04/17 05:51:55;;;;;;;5.07;3.63;;;;;;;4.20;71.65;102784.69;5113910;28;20027;-44
2021/04/17 05:54:20;;;;;;;7.10;3.77;;;;;;;4.20;71.24;102787.38;5113845;28;20132;-43
2021/04/17 05:56:45;;;;;;;6.30;3.97;;;;;;;4.24;70.77;102788.75;5114155;28;20035;-44
2021/04/17 05:59:11;;;;;;;6.20;3.77;;;;;;;4.31;71.63;102787.22;5114137;28;20459;-43
2021/04/17 06:01:36;;;;;;;7.23;3.57;;;;;;;4.45;70.99;102790.44;5113964;28;20073;-43
2021/04/17 06:04:02;;;;;;;6.17;3.37;;;;;;;4.55;70.67;102783.25;5114348;28;20076;-44
2021/04/17 06:06:27;;;;;;;7.80;3.47;;;;;;;4.65;70.89;102786.75;5113759;28;20081;-44
2021/04/17 06:08:52;;;;;;;7.17;3.40;;;;;;;4.69;71.11;102788.16;5113731;28;20023;-43
2021/04/17 06:11:18;;;;;;;7.83;3.77;;;;;;;4.60;71.50;102783.66;5113741;28;20107;-43
2021/04/17 06:13:43;;;;;;;6.00;3.67;;;;;;;4.73;70.77;102784.16;5113722;28;20107;-43
2021/04/17 06:16:09;;;;;;;8.70;3.87;;;;;;;4.81;70.16;102786.97;5114048;28;20031;-45
2021/04/17 06:18:35;;;;;;;7.13;3.67;;;;;;;4.94;70.38;102786.66;5113593;28;20031;-44
2021/04/17 06:21:01;;;;;;;;;;;;;;;5.06;69.79;102780.09;5114111;28;20040;-43
2021/04/17 06:23:26;;;;;;;8.05;3.92;;;;;;;5.01;70.43;102789.59;5112354;28;20484;-43
2021/04/17 06:25:52;;;;;;;6.00;3.43;;;;;;;5.02;70.93;102784.06;5113720;28;20054;-44
2021/04/17 06:28:19;;;;;;;4.53;3.43;;;;;;;5.16;69.85;102788.94;5120061;28;20020;-44
2021/04/17 06:30:45;;;;;;;7.35;3.45;;;;;;;5.25;70.31;102779.19;5133812;28;20296;-43
2021/04/17 06:33:11;;;;;;;6.53;4.00;;;;;;;5.37;69.74;102788.72;5133797;28;20497;-43
2021/04/17 06:35:37;;;;;;;10.00;3.85;;;;;;;5.40;69.49;102783.03;5133613;28;20107;-44
2021/04/17 06:38:03;;;;;;;5.47;3.38;;;;;;;5.43;69.76;102785.44;5134112;28;20114;-43
2021/04/17 06:40:28;;;;;;;6.80;3.38;;;;;;;5.60;69.59;102782.94;5134573;28;20153;-43
2021/04/17 06:42:56;;;;;;;12.60;4.97;;;;;;;5.67;69.12;102784.03;5134003;28;20034;-44
2021/04/17 06:45:23;;;;;;;8.32;3.55;;;;;;;5.65;69.31;102786.00;5133845;28;20139;-43
2021/04/17 06:47:48;;;;;;;;;;;;;;;5.82;68.78;102787.03;5138501;27;20051;-43
2021/04/17 06:50:14;;;;;;;7.60;3.20;;;;;;;5.80;68.70;102789.00;5137909;27;20275;-44
2021/04/17 06:52:41;;;;;;;5.85;3.50;;;;;;;5.87;68.87;102788.28;5138073;27;20020;-44
2021/04/17 06:55:09;;;;;;;5.68;3.40;;;;;;;5.90;68.45;102779.03;5138052;27;20031;-44
2021/04/17 06:57:35;;;;;;;6.47;3.20;;;;;;;6.02;67.88;102782.41;5137772;27;20031;-44
2021/04/17 07:00:08;;;;;;;7.07;3.40;;;;;;;6.08;67.55;102779.09;5137091;27;20046;-44
2021/04/17 07:02:33;;;;;;;4.78;3.13;;;;;;;6.17;67.46;102791.59;5138762;27;20430;-44
2021/04/17 07:04:59;;;;;;;4.23;3.13;;;;;;;6.25;67.24;102786.31;5137775;27;20062;-43
2021/04/17 07:07:24;;;;;;;9.30;3.27;;;;;;;6.37;66.46;102785.06;5137249;27;20033;-44
2021/04/17 07:09:51;;;;;;;8.27;4.00;;;;;;;6.36;66.62;102786.06;5136110;27;20043;-44
2021/04/17 07:12:17;;;;;;;5.43;3.22;;;;;;;6.44;66.15;102783.44;5135927;27;20043;-44
2021/04/17 07:14:47;;;;;;;5.83;3.60;;;;;;;6.53;65.74;102786.16;5137716;27;20092;-43
2021/04/17 07:17:13;;;;;;;6.85;3.20;;;;;;;6.61;66.14;102788.94;5137933;27;20049;-43
2021/04/17 07:19:47;;;;;;;6.20;3.40;;;;;;;6.73;65.62;102790.34;5137353;27;20102;-44
2021/04/17 07:22:26;;;;;;;5.38;2.97;;;;;;;6.80;65.90;102791.41;5137574;27;20056;-44
2021/04/17 07:25:12;;;;;;;7.13;3.28;;;;;;;6.95;65.29;102786.28;5137208;27;20494;-43
2021/04/17 07:27:38;;;;;;;8.02;3.05;;;;;;;6.96;63.59;102783.41;5137206;27;20467;-44
2021/04/17 07:30:09;;;;;;;7.32;2.88;;;;;;;6.96;63.08;102788.81;5137017;27;20481;-44
2021/04/17 07:32:35;;;;;;;4.32;2.80;;;;;;;6.84;63.62;102783.88;5136007;27;20471;-45
2021/04/17 07:35:11;;;;;;;7.95;2.97;;;;;;;6.86;63.27;102785.38;5137004;27;20023;-43
2021/04/17 07:37:39;;;;;;;8.68;2.97;;;;;;;6.93;62.94;102778.38;5137793;27;20065;-44
2021/04/17 07:40:16;;;;;;;7.07;3.53;;;;;;;7.14;63.12;102790.59;5136980;27;20062;-44
2021/04/17 07:42:44;;;;;;;3.58;3.00;;;;;;;7.26;62.12;102783.91;5137367;27;20412;-43
2021/04/17 07:45:20;;;;;;;3.92;2.40;;;;;;;7.45;61.43;102780.09;5137551;27;20357;-44
2021/04/17 07:47:46;;;;;;;6.47;2.45;;;;;;;7.54;60.69;102778.28;5137495;27;20047;-44
2021/04/17 07:50:12;;;;;;;4.15;2.20;;;;;;;7.63;59.59;102778.16;5136951;27;20375;-44
2021/04/17 07:52:37;;;;;;;5.43;1.98;;;;;;;7.74;58.69;102782.38;5136307;27;20023;-44
2021/04/17 07:55:07;;;;;;;3.95;2.13;;;;;;;7.67;57.13;102775.97;5136942;27;20087;-44
2021/04/17 07:57:43;;;;;;;3.92;2.30;;;;;;;7.74;57.20;102774.28;5136714;27;20027;-44
2021/04/17 08:00:11;;;;;;;4.97;2.10;;;;;;;7.67;56.57;102776.81;5136236;27;20023;-44
2021/04/17 08:02:38;;;;;;;6.72;2.53;;;;;;;7.68;56.65;102783.03;5136484;27;20023;-44
2021/04/17 08:05:06;;;;;;;8.73;2.60;;;;;;;7.84;57.13;102772.28;5136418;27;20024;-44
2021/04/17 08:07:35;;;;;;;5.90;2.53;;;;;;;7.99;56.73;102770.63;5136311;27;20187;-44
2021/04/17 08:10:03;;;;;;;5.13;2.00;;;;;;;8.16;58.08;102767.97;5136818;27;20039;-43
2021/04/17 08:12:28;;;;;;;5.53;2.40;;;;;;;8.21;57.50;102773.69;5136212;27;20140;-44
2021/04/17 08:14:54;;;;;;;6.13;2.63;;;;;;;8.25;56.18;102764.25;5135909;27;20469;-44
2021/04/17 08:17:20;;;;;;;5.10;2.23;;;;;;;8.29;54.42;102772.81;5136094;27;20027;-44
2021/04/17 08:19:46;;;;;;;3.85;1.77;;;;;;;8.45;55.43;102771.00;5135469;27;20474;-44
2021/04/17 08:22:12;;;;;;;3.40;1.80;;;;;;;8.55;54.67;102765.44;5135795;27;20373;-44
2021/04/17 08:24:40;;;;;;;3.58;1.73;;;;;;;8.66;53.13;102762.38;5134854;27;20032;-42
2021/04/17 08:27:06;;;;;;;3.92;1.70;;;;;;;8.75;53.41;102757.81;5133113;27;20038;-39
2021/04/17 08:29:51;;;;;;;4.97;1.90;;;;;;;8.87;53.76;102763.69;5135563;27;20023;-41
2021/04/17 08:32:36;;;;;;;4.88;1.60;;;;;;;9.01;52.37;102766.50;5135788;27;20034;-41
2021/04/17 08:35:10;;;;;;;4.00;1.75;;;;;;;9.12;52.83;102756.34;5135871;27;20035;-41
2021/04/17 08:37:56;;;;;;;5.30;2.58;;;;;;;9.21;50.82;102760.69;5135718;27;20104;-41
2021/04/17 08:40:36;;;;;;;8.18;2.42;;;;;;;9.21;50.80;102758.00;5135244;27;20114;-41
2021/04/17 08:43:25;;;;;;;6.38;1.90;;;;;;;9.28;50.04;102754.44;5135640;27;20044;-41
2021/04/17 08:46:03;;;;;;;5.32;1.98;;;;;;;9.40;49.95;102760.25;5135980;27;20131;-41
2021/04/17 08:48:48;;;;;;;3.75;1.63;;;;;;;9.45;49.24;102757.88;5135714;27;20038;-41
2021/04/17 08:51:22;;;;;;;3.97;1.75;;;;;;;9.40;48.56;102759.44;5135058;27;20042;-42
2021/04/17 08:54:13;;;;;;;3.42;1.73;;;;;;;9.58;50.89;102757.31;5135689;27;20026;-41
2021/04/17 08:56:49;;;;;;;4.10;1.67;;;;;;;9.73;49.33;102760.09;5135531;27;20467;-41
2021/04/17 08:59:19;;;;;;;4.32;1.75;;;;;;;9.86;49.16;102749.53;5135841;27;20035;-41
2021/04/17 09:01:44;;;;;;;6.28;2.00;;;;;;;9.92;48.01;102750.69;5135279;27;20467;-41
2021/04/17 09:04:11;;;;;;;3.20;1.63;;;;;;;10.00;48.40;102748.75;5135222;27;20030;-41
2021/04/17 09:06:48;;;;;;;4.53;1.90;;;;;;;10.13;48.29;102744.59;5135132;27;20075;-41
2021/04/17 09:09:16;;;;;;;7.18;2.00;;;;;;;10.26;47.94;102739.44;5135027;27;20424;-41
2021/04/17 09:11:51;;;;;;;3.33;1.77;;;;;;;10.41;47.47;102742.19;5134088;27;20437;-41
2021/04/17 09:14:29;;;;;;;3.22;1.60;;;;;;;10.28;46.90;102743.63;5134852;27;20027;-41
2021/04/17 09:17:03;;;;;;;3.95;1.70;;;;;;;10.31;47.89;102742.44;5135208;27;20042;-41
2021/04/17 09:19:40;;;;;;;5.07;2.00;;;;;;;10.38;47.83;102735.25;5134967;27;20032;-41
2021/04/17 09:22:24;;;;;;;6.32;1.95;;;;;;;10.50;47.32;102741.09;5135376;27;20034;-41
2021/04/17 09:24:59;;;;;;;4.88;1.55;;;;;;;10.56;47.14;102734.94;5134816;27;20027;-41
2021/04/17 09:27:32;;;;;;;4.95;1.70;;;;;;;10.60;46.37;102735.41;5133444;27;20356;-41
2021/04/17 09:30:07;;;;;;;5.40;1.60;;;;;;;10.60;44.68;102725.41;5135039;27;20421;-41
2021/04/17 09:32:44;;;;;;;3.50;1.45;;;;;;;10.66;45.42;102729.25;5134945;27;20122;-41
2021/04/17 09:35:14;;;;;;;6.95;2.40;;;;;;;10.80;45.57;102723.84;5134476;27;20026;-41
2021/04/17 09:37:41;;;;;;;5.45;2.13;;;;;;;10.99;45.13;102727.84;5134528;27;20023;-41
2021/04/17 09:40:06;;;;;;;;;;;;;;;11.13;43.65;102715.31;5135664;27;20031;-41
2021/04/17 09:42:33;;;;;;;3.58;1.63;;;;;;;10.97;42.69;102721.75;5134560;27;19937;-41
2021/04/17 09:45:00;;;;;;;2.92;1.50;;;;;;;10.98;42.07;102717.19;5135295;27;20375;-41
2021/04/17 09:47:25;;;;;;;2.25;1.55;;;;;;;10.87;42.92;102713.09;5134447;27;20070;-41
2021/04/17 09:49:53;;;;;;;3.87;1.80;;;;;;;10.99;41.51;102705.34;5134788;27;20050;-41
2021/04/17 09:52:22;;;;;;;4.07;1.58;;;;;;;11.14;41.65;102699.91;5134257;27;20509;-41
2021/04/17 09:55:07;;;;;;;4.03;1.75;;;;;;;11.39;42.85;102712.09;5134338;27;20471;-41
2021/04/17 09:57:33;;;;;;;3.35;1.88;;;;;;;11.53;42.24;102694.94;5133676;27;20035;-41
2021/04/17 10:00:00;;;;;;;3.40;1.70;;;;;;;11.68;42.56;102700.31;5134707;27;20478;-41
2021/04/17 10:02:47;;;;;;;3.70;1.52;;;;;;;11.78;42.27;102691.84;5133983;27;20061;-41
2021/04/17 10:05:14;;;;;;;4.10;1.70;;;;;;;11.81;41.14;102692.31;5135074;27;20367;-41
2021/04/17 10:07:45;;;;;;;3.10;1.75;;;;;;;11.89;41.27;102685.94;5134193;27;20209;-41
2021/04/17 10:10:11;;;;;;;4.47;1.63;;;;;;;11.74;39.64;102683.28;5134684;28;20437;-41
2021/04/17 10:12:54;;;;;;;3.00;1.63;;;;;;;11.62;40.93;102681.28;5134123;28;20070;-41
2021/04/17 10:15:25;;;;;;;3.17;1.60;;;;;;;11.68;40.32;102683.22;5134381;28;20029;-41
2021/04/17 10:17:52;;;;;;;6.30;1.85;;;;;;;11.77;40.05;102669.34;5134241;28;20439;-41
2021/04/17 10:20:18;;;;;;;3.58;1.58;;;;;;;11.93;39.00;102670.13;5133949;28;20035;-41
2021/04/17 10:22:58;;;;;;;2.50;1.38;;;;;;;11.96;39.27;102662.44;5137244;27;20024;-41
2021/04/17 10:25:38;;;;;;;4.18;1.63;;;;;;;11.86;40.75;102664.66;5138840;27;20023;-41
2021/04/17 10:28:18;;;;;;;3.75;1.60;;;;;;;11.71;39.39;102658.41;5138638;27;20449;-41
2021/04/17 10:30:46;;;;;;;2.90;1.45;;;;;;;11.90;39.93;102663.22;5138384;27;20031;-41
2021/04/17 10:33:23;;;;;;;4.07;1.85;;;;;;;11.94;40.65;102645.53;5138302;27;20102;-41
2021/04/17 10:35:50;;;;;;;5.45;1.88;;;;;;;12.14;39.60;102648.38;5138091;27;20027;-41
2021/04/17 10:38:42;;;;;;;3.22;1.55;;;;;;;12.41;40.27;102644.00;5137698;27;20024;-41
2021/04/17 10:41:08;;;;;;;5.30;1.60;;;;;;;12.51;38.41;102636.31;5135386;27;20393;-41
2021/04/17 10:43:33;;;;;;;2.92;1.88;;;;;;;12.46;38.53;102635.25;5138306;27;20054;-38
2021/04/17 10:46:02;;;;;;;3.00;1.80;;;;;;;12.06;39.48;102635.00;5137982;27;20035;-39
2021/04/17 10:48:39;;;;;;;5.57;1.90;;;;;;;11.76;39.08;102635.16;5137690;27;20038;-39
2021/04/17 10:51:07;;;;;;;3.15;1.80;;;;;;;11.85;39.13;102639.41;5137802;27;20031;-39
2021/04/17 10:53:50;;;;;;;2.90;1.58;;;;;;;12.03;39.42;102630.78;5137599;27;20015;-39
2021/04/17 10:56:20;;;;;;;3.83;1.52;;;;;;;12.16;40.15;102621.09;5137734;27;20118;-39
2021/04/17 10:58:55;;;;;;;5.05;1.73;;;;;;;12.46;38.77;102624.41;5137678;27;20073;-40
2021/04/17 11:01:26;;;;;;;4.10;1.88;;;;;;;12.68;38.77;102606.97;5138344;27;20057;-40
2021/04/17 11:03:54;;;;;;;2.97;1.77;;;;;;;12.68;37.98;102617.81;5137228;27;20027;-40
2021/04/17 11:06:22;;;;;;;3.92;1.48;;;;;;;12.83;37.60;102609.53;5137998;27;20382;-40
2021/04/17 11:08:50;;;;;;;3.60;1.67;;;;;;;12.60;37.59;102605.28;5137135;27;20023;-40
2021/04/17 11:11:21;;;;;;;3.00;2.13;;;;;;;12.84;37.66;102606.63;5137938;27;20112;-40
2021/04/17 11:13:55;;;;;;;3.60;1.27;;;;;;;13.00;37.71;102602.72;5138145;27;20111;-40
2021/04/17 11:16:41;;;;;;;4.47;1.88;;;;;;;13.10;36.94;102594.16;5136351;27;20385;-40
2021/04/17 11:19:29;;;;;;;2.67;1.50;;;;;;;13.14;38.07;102587.28;5137773;27;20075;-40
2021/04/17 11:22:15;;;;;;;4.38;1.83;;;;;;;13.27;37.55;102578.34;5137314;27;20041;-40
2021/04/17 11:24:42;;;;;;;3.13;1.70;;;;;;;13.35;36.61;102581.69;5137188;27;20076;-40
2021/04/17 11:27:08;;;;;;;3.30;1.70;;;;;;;13.44;36.64;102585.06;5137120;27;20110;-40
2021/04/17 11:29:34;;;;;;;3.08;1.58;;;;;;;13.29;37.46;102568.97;5137326;27;20019;-40
2021/04/17 11:32:00;;;;;;;5.10;1.95;;;;;;;13.50;37.14;102567.91;5137470;27;20080;-40
2021/04/17 11:34:25;;;;;;;5.68;1.98;;;;;;;13.47;36.53;102562.06;5135668;27;20425;-40
2021/04/17 11:36:50;;;;;;;5.70;1.83;;;;;;;13.59;36.94;102572.09;5136671;27;20360;-40
2021/04/17 11:39:17;;;;;;;4.13;1.73;;;;;;;13.69;36.87;102576.28;5137696;27;20076;-40
2021/04/17 11:41:43;;;;;;;5.38;1.60;;;;;;;13.75;36.85;102578.16;5136978;27;20031;-40
2021/04/17 11:44:08;;;;;;;3.05;1.63;;;;;;;13.96;36.46;102569.78;5137153;27;20031;-40
2021/04/17 11:46:38;;;;;;;4.23;2.07;;;;;;;14.10;36.46;102573.28;5137014;27;20047;-40
2021/04/17 11:49:04;;;;;;;4.70;2.40;;;;;;;14.19;36.75;102577.47;5136661;27;20039;-40
2021/04/17 11:51:30;;;;;;;5.28;1.80;;;;;;;14.20;36.80;102578.31;5136758;27;20098;-40
2021/04/17 11:53:55;;;;;;;4.28;1.98;;;;;;;14.17;36.23;102564.09;5136633;27;20030;-40
2021/04/17 11:56:20;;;;;;;3.33;1.43;;;;;;;14.37;37.09;102553.13;5136839;27;20031;-40
2021/04/17 11:58:46;;;;;;;6.50;2.07;;;;;;;14.52;36.37;102550.19;5136245;27;20031;-40
2021/04/17 12:01:12;;;;;;;4.97;2.07;;;;;;;14.23;36.63;102558.84;5136458;27;20038;-40
2021/04/17 12:03:38;;;;;;;3.33;2.10;;;;;;;13.98;37.88;102556.81;5136590;27;20479;-40
2021/04/17 12:06:03;;;;;;;4.45;1.80;;;;;;;13.77;38.05;102560.59;5136441;27;20063;-41
2021/04/17 12:08:29;;;;;;;3.92;1.77;;;;;;;13.63;38.07;102554.34;5136770;27;20023;-40
2021/04/17 12:10:54;;;;;;;4.70;2.13;;;;;;;13.99;38.24;102544.03;5136504;27;20025;-40
2021/04/17 12:13:20;;;;;;;5.72;2.33;;;;;;;14.14;38.41;102541.91;5136289;27;20105;-40
2021/04/17 12:15:46;;;;;;;6.17;2.10;;;;;;;14.29;37.58;102531.59;5136857;27;20038;-40
2021/04/17 12:18:13;;;;;;;5.05;1.98;;;;;;;14.25;37.41;102543.13;5136036;27;20265;-40
2021/04/17 12:20:39;;;;;;;4.93;2.28;;;;;;;14.09;38.71;102545.25;5136467;27;20019;-40
2021/04/17 12:23:04;;;;;;;;;;;;;;;14.02;38.16;102546.34;5136090;27;20034;-40
2021/04/17 12:25:30;;;;;;;5.30;1.90;;;;;;;13.43;38.84;102550.78;5136509;27;19907;-40
2021/04/17 12:27:55;;;;;;;8.20;2.53;;;;;;;13.27;39.05;102549.28;5136186;27;20474;-40
2021/04/17 12:30:21;;;;;;;4.83;2.23;;;;;;;13.40;39.48;102551.19;5134456;27;20121;-40
2021/04/17 12:32:47;;;;;;;5.68;2.20;;;;;;;13.57;38.45;102547.03;5135502;27;20076;-40
2021/04/17 12:35:15;;;;;;;7.18;2.25;;;;;;;14.00;38.23;102541.09;5136096;27;20030;-40
2021/04/17 12:37:43;;;;;;;7.18;2.95;;;;;;;14.22;37.88;102543.56;5135284;27;20463;-40
2021/04/17 12:40:09;;;;;;;4.30;1.92;;;;;;;14.25;36.82;102537.69;5135475;27;20112;-40
2021/04/17 12:42:35;;;;;;;;;;;;;;;14.43;38.05;102535.09;5136586;27;20099;-40
2021/04/17 12:45:00;;;;;;;5.03;2.10;;;;;;;14.53;36.94;102532.78;5135229;27;19911;-40
2021/04/17 12:47:26;;;;;;;6.37;2.20;;;;;;;14.40;37.46;102530.13;5136066;27;20130;-40
2021/04/17 12:49:51;;;;;;;5.50;2.53;;;;;;;14.14;38.10;102520.97;5136034;27;20023;-40
2021/04/17 12:52:17;;;;;;;5.53;2.40;;;;;;;13.84;38.27;102525.25;5135417;27;20023;-40
2021/04/17 12:54:42;;;;;;;4.63;2.00;;;;;;;13.75;38.45;102523.78;5135741;27;20249;-40
2021/04/17 12:57:07;;;;;;;4.43;2.30;;;;;;;13.54;38.70;102520.25;5135356;27;20019;-40
2021/04/17 12:59:33;;;;;;;5.03;2.38;;;;;;;13.82;38.66;102525.47;5135650;27;20417;-40
2021/04/17 13:01:58;;;;;;;6.07;2.00;;;;;;;14.26;37.53;102515.72;5134989;27;20515;-40
2021/04/17 13:04:25;;;;;;;5.47;2.40;;;;;;;14.17;37.63;102508.84;5135531;27;20363;-40
2021/04/17 13:06:50;;;;;;;5.28;2.42;;;;;;;14.40;37.41;102508.34;5134857;27;20029;-40
2021/04/17 13:09:15;;;;;;;5.60;2.33;;;;;;;14.59;37.24;102498.41;5135810;27;20039;-40
2021/04/17 13:11:41;;;;;;;5.87;2.50;;;;;;;14.76;37.18;102498.75;5135131;27;20027;-40
2021/04/17 13:14:06;;;;;;;7.37;2.40;;;;;;;14.67;37.00;102500.91;5135290;27;20030;-40
2021/04/17 13:16:31;;;;;;;4.37;2.20;;;;;;;14.45;37.66;102500.38;5135161;27;20031;-40
2021/04/17 13:18:57;;;;;;;6.63;2.50;;;;;;;14.28;38.23;102510.06;5134975;27;20363;-40
2021/04/17 13:21:22;;;;;;;5.23;2.43;;;;;;;14.13;38.34;102494.81;5135057;27;20027;-40
2021/04/17 13:23:47;;;;;;;4.73;2.17;;;;;;;13.79;38.47;102500.56;5134821;27;20424;-40
2021/04/17 13:26:16;;;;;;;5.90;2.63;;;;;;;13.64;38.56;102498.09;5135222;27;20527;-40
2021/04/17 13:28:46;;;;;;;7.28;2.85;;;;;;;13.64;39.13;102498.09;5134786;27;20372;-40
2021/04/17 13:31:12;;;;;;;4.75;2.20;;;;;;;13.64;39.24;102488.03;5134714;27;20023;-40
2021/04/17 13:33:38;;;;;;;7.07;2.63;;;;;;;13.75;40.07;102483.84;5134515;27;20375;-40
2021/04/17 13:36:05;;;;;;;7.38;2.42;;;;;;;13.84;37.96;102487.16;5134885;27;20035;-40
2021/04/17 13:38:30;;;;;;;6.15;2.35;;;;;;;14.05;38.32;102478.72;5135200;27;20366;-40
2021/04/17 13:40:56;;;;;;;5.82;2.60;;;;;;;14.36;37.31;102469.84;5134902;27;20035;-40
2021/04/17 13:43:21;;;;;;;4.90;2.25;;;;;;;14.74;36.58;102477.19;5134192;27;20027;-40
2021/04/17 13:45:47;;;;;;;4.93;2.30;;;;;;;15.02;37.92;102471.31;5135163;27;20042;-40
2021/04/17 13:48:12;;;;;;;4.03;2.13;;;;;;;15.17;36.46;102474.56;5135017;27;20081;-40
2021/04/17 13:50:37;;;;;;;6.97;2.90;;;;;;;14.92;35.99;102468.25;5134164;27;20478;-40
2021/04/17 13:53:03;;;;;;;4.73;2.53;;;;;;;14.60;36.83;102468.28;5133253;27;20156;-40
2021/04/17 13:55:28;;;;;;;4.45;2.05;;;;;;;14.44;36.84;102463.28;5134415;27;20054;-40
2021/04/17 13:57:53;;;;;;;3.50;2.22;;;;;;;14.57;37.86;102454.25;5133901;27;20056;-40
2021/04/17 14:00:19;;;;;;;7.90;2.70;;;;;;;14.68;37.21;102457.09;5135117;27;20034;-40
2021/04/17 14:02:45;;;;;;;4.75;2.30;;;;;;;14.32;36.57;102452.25;5134218;27;20268;-40
2021/04/17 14:05:11;;;;;;;7.77;2.53;;;;;;;14.40;37.40;102453.91;5134646;27;20560;-40
2021/04/17 14:07:36;;;;;;;;;;;;;;;14.64;37.81;102453.19;5134717;27;20390;-40
2021/04/17 14:10:03;;;;;;;5.73;2.30;;;;;;;14.89;37.06;102452.38;5134734;27;19907;-40
2021/04/17 14:12:28;;;;;;;3.65;2.35;;;;;;;15.00;36.64;102450.81;5134623;28;20356;-40
2021/04/17 14:14:54;;;;;;;6.50;2.80;;;;;;;14.88;35.98;102450.69;5134037;28;20118;-40
2021/04/17 14:17:19;;;;;;;4.20;2.33;;;;;;;14.62;37.11;102446.25;5134210;28;20061;-40
2021/04/17 14:19:44;;;;;;;8.65;2.47;;;;;;;14.43;37.23;102437.97;5134504;28;20176;-40
2021/04/17 14:22:10;;;;;;;5.07;2.43;;;;;;;14.32;38.21;102441.38;5133785;28;20027;-40
2021/04/17 14:24:35;;;;;;;6.30;2.47;;;;;;;14.09;39.45;102441.88;5134207;28;20268;-40
2021/04/17 14:27:02;;;;;;;7.23;2.90;;;;;;;13.86;39.51;102444.31;5134133;28;20029;-40
2021/04/17 14:29:27;;;;;;;4.80;2.45;;;;;;;13.46;40.33;102441.66;5134277;28;20019;-40
2021/04/17 14:31:54;;;;;;;5.82;2.58;;;;;;;13.54;41.98;102443.31;5134466;28;20050;-40
2021/04/17 14:34:19;;;;;;;7.10;2.42;;;;;;;13.47;41.22;102445.19;5134050;28;20031;-40
2021/04/17 14:36:45;;;;;;;4.97;2.22;;;;;;;13.56;41.08;102436.59;5134009;28;20110;-40
2021/04/17 14:39:10;;;;;;;4.60;2.30;;;;;;;13.61;41.06;102434.09;5134667;28;20030;-40
2021/04/17 14:41:36;;;;;;;6.77;2.53;;;;;;;14.07;40.12;102432.28;5134062;28;20608;-40
2021/04/17 14:44:06;;;;;;;;;;;;;;;14.46;39.92;102422.25;5134387;28;20023;-40
2021/04/17 14:46:32;;;;;;;5.95;2.50;;;;;;;14.67;38.76;102422.78;5134283;27;20247;-40
2021/04/17 14:48:58;;;;;;;7.70;2.10;;;;;;;14.86;37.98;102420.97;5133886;28;20035;-40
2021/04/17 14:51:24;;;;;;;6.32;2.70;;;;;;;14.65;38.36;102424.88;5133824;28;20030;-39
2021/04/17 14:53:49;;;;;;;4.78;2.30;;;;;;;14.51;38.69;102417.84;5133815;28;20020;-40
2021/04/17 14:56:14;;;;;;;8.13;2.47;;;;;;;14.26;39.46;102415.03;5134090;28;20382;-40
2021/04/17 14:58:41;;;;;;;9.07;2.60;;;;;;;14.02;40.70;102432.94;5133985;28;20149;-40
2021/04/17 15:01:06;;;;;;;6.57;2.95;;;;;;;13.88;40.88;102423.16;5134313;28;20030;-40
2021/04/17 15:03:31;;;;;;;6.10;2.57;;;;;;;13.75;41.37;102420.47;5134003;28;20023;-40
2021/04/17 15:05:57;;;;;;;8.53;2.80;;;;;;;13.64;41.47;102416.53;5134152;28;20055;-40
2021/04/17 15:08:22;;;;;;;7.33;2.53;;;;;;;13.57;41.86;102413.84;5134650;27;20736;-40
2021/04/17 15:10:48;;;;;;;5.73;2.60;;;;;;;13.68;41.76;102412.34;5137265;27;20763;-40
2021/04/17 15:13:13;;;;;;;7.67;2.73;;;;;;;13.85;41.29;102418.13;5137227;27;20031;-40
2021/04/17 15:15:38;;;;;;;5.10;2.87;;;;;;;14.11;40.94;102406.34;5137076;27;20023;-40
2021/04/17 15:18:04;;;;;;;4.93;2.30;;;;;;;14.26;40.28;102411.50;5137316;27;20061;-40
2021/04/17 15:20:30;;;;;;;5.15;2.50;;;;;;;14.22;39.83;102400.19;5136744;27;20106;-40
2021/04/17 15:22:56;;;;;;;5.93;2.50;;;;;;;14.63;39.96;102393.47;5137060;27;20027;-40
2021/04/17 15:25:21;;;;;;;6.47;2.80;;;;;;;14.68;39.75;102397.19;5137589;27;20136;-40
2021/04/17 15:27:47;;;;;;;5.53;2.33;;;;;;;14.82;39.73;102392.50;5137028;27;20051;-41
2021/04/17 15:30:13;;;;;;;;;;;;;;;14.70;39.59;102393.44;5136434;27;20443;-40
2021/04/17 15:32:42;;;;;;;5.55;2.72;;;;;;;14.22;40.96;102389.31;5135685;27;19922;-40
2021/04/17 15:35:11;;;;;;;17.88;3.22;;;;;;;14.16;41.44;102391.03;5135437;27;20372;-40
2021/04/17 15:37:38;;;;;;;6.10;2.60;;;;;;;13.93;41.70;102390.72;5136830;27;20031;-40
2021/04/17 15:40:05;;;;;;;7.05;2.63;;;;;;;13.75;42.07;102391.41;5137720;27;20027;-41
2021/04/17 15:42:30;;;;;;;7.38;2.70;;;;;;;13.47;41.33;102394.44;5136723;27;20428;-41
2021/04/17 15:44:57;;;;;;;6.40;2.70;;;;;;;13.27;41.13;102396.31;5136808;27;20124;-40
2021/04/17 15:47:22;;;;;;;;;;;;;;;13.26;41.94;102397.38;5137052;27;20372;-41
2021/04/17 15:49:47;;;;;;;5.07;2.50;;;;;;;13.21;42.27;102397.97;5137031;27;19998;-40
2021/04/17 15:52:13;;;;;;;5.70;2.20;;;;;;;13.40;43.60;102385.44;5136537;27;20026;-41
2021/04/17 15:54:38;;;;;;;4.67;2.77;;;;;;;13.62;43.29;102388.75;5136684;27;20487;-40
2021/04/17 15:57:17;;;;;;;4.23;2.00;;;;;;;13.52;42.52;102393.78;5136779;27;20062;-40
2021/04/17 16:15:34;;;;;;;6.68;2.60;;;;;;;13.25;43.87;102395.72;5136615;27;20038;-39
2021/04/17 16:18:08;;;;;;;6.55;2.45;;;;;;;13.07;43.60;102389.00;5136223;27;20443;-40
2021/04/17 16:20:36;;;;;;;6.45;2.42;;;;;;;12.96;44.33;102392.34;5136207;27;20019;-40
2021/04/17 16:23:02;;;;;;;4.28;2.50;;;;;;;12.88;44.05;102400.69;5136068;27;20039;-39
2021/04/17 16:25:28;;;;;;;6.65;2.42;;;;;;;12.73;44.32;102391.91;5136354;27;20062;-39
2021/04/17 16:27:53;;;;;;;5.95;2.53;;;;;;;12.78;44.71;102401.09;5136005;27;20058;-39
2021/04/17 16:30:24;;;;;;;4.67;2.53;;;;;;;12.70;44.58;102404.03;5135887;27;20477;-39
2021/04/17 16:32:50;;;;;;;5.68;2.28;;;;;;;12.87;44.62;102401.75;5136413;27;20027;-39